Time;durP1;ratioP1;P1;durP2;ratioP2;P2;SDS_P1;SDS_P2;PMS_P1;PMS_P2;Temp;Humidity;BMP_temperature;BMP_pressure;BME280_temperature;BME280_humidity;BME280_pressure;Samples;Min_cycle;Max_cycle;Signal;HPM_P1;HPM_P2
2023/09/01 00:01:58;;;;;;;7.37;3.07;;;19.50;93.70;;;19.94;59.76;95137.97;5040364;28;20448;-60
2023/09/01 00:04:25;;;;;;;4.10;3.13;;;19.50;93.70;;;19.88;60.02;95143.06;5036889;28;20553;-58
2023/09/01 00:06:52;;;;;;;4.80;3.03;;;19.40;93.90;;;19.82;59.91;95145.69;5038360;28;20536;-58
2023/09/01 00:09:20;;;;;;;8.30;3.03;;;19.40;94.10;;;19.79;60.15;95154.06;5042008;28;21078;-59
2023/09/01 00:11:47;;;;;;;12.27;2.97;;;19.30;94.20;;;19.74;60.41;95153.78;5043275;28;20537;-63
2023/09/01 00:14:14;;;;;;;4.33;3.30;;;19.30;94.30;;;19.70;60.28;95154.16;5034001;28;20479;-59
2023/09/01 00:16:43;;;;;;;6.50;2.60;;;19.30;94.40;;;19.67;60.22;95159.88;5041167;28;20475;-59
2023/09/01 00:19:10;;;;;;;6.60;3.03;;;19.20;94.40;;;19.65;60.47;95159.22;5034650;28;20504;-58
2023/09/01 00:21:37;;;;;;;10.43;3.77;;;19.20;94.60;;;19.63;60.76;95155.94;5042072;28;20452;-59
2023/09/01 00:24:05;;;;;;;11.40;2.90;;;19.20;94.70;;;19.60;60.93;95161.66;5035234;28;20993;-59
2023/09/01 00:26:33;;;;;;;3.90;2.90;;;19.20;94.80;;;19.58;61.20;95158.34;5038587;28;20515;-58
2023/09/01 00:29:00;;;;;;;6.77;3.33;;;19.10;94.90;;;19.56;60.36;95160.38;5034717;28;20552;-62
2023/09/01 00:31:27;;;;;;;4.93;3.50;;;19.10;94.60;;;19.46;60.66;95154.53;5026506;28;20571;-60
2023/09/01 00:33:56;;;;;;;6.40;3.50;;;19.00;94.60;;;19.39;60.74;95154.44;5030033;28;20480;-59
2023/09/01 00:36:23;;;;;;;5.87;3.47;;;19.00;94.80;;;19.30;61.36;95158.22;5034780;28;20815;-60
2023/09/01 00:38:50;;;;;;;3.13;2.83;;;18.90;95.00;;;19.24;61.38;95158.97;5037408;28;20588;-58
2023/09/01 00:41:18;;;;;;;10.70;2.90;;;18.80;95.40;;;19.19;61.42;95159.53;5030907;28;20449;-60
2023/09/01 00:43:45;;;;;;;6.00;4.13;;;18.80;95.50;;;19.18;61.60;95160.56;5036367;28;20483;-58
2023/09/01 00:46:13;;;;;;;10.50;3.63;;;18.70;95.80;;;19.16;61.50;95162.56;5035090;28;20890;-59
2023/09/01 00:48:40;;;;;;;12.80;3.70;;;18.70;95.90;;;19.15;61.90;95161.75;5036870;28;20471;-59
2023/09/01 00:51:10;;;;;;;3.53;2.73;;;18.70;95.90;;;19.15;61.95;95155.59;5035859;28;21142;-57
2023/09/01 00:53:37;;;;;;;5.53;2.80;;;18.70;96.00;;;19.15;61.79;95156.41;5037225;28;20471;-59
2023/09/01 00:56:06;;;;;;;4.90;3.10;;;18.70;96.00;;;19.16;62.23;95149.22;5035687;28;20463;-58
2023/09/01 00:58:34;;;;;;;10.10;3.90;;;18.70;96.00;;;19.17;61.93;95156.22;5036919;28;20526;-58
2023/09/01 01:01:04;;;;;;;5.00;3.00;;;18.70;96.00;;;19.19;62.26;95164.03;5032577;28;20460;-63
2023/09/01 01:03:33;;;;;;;2.70;2.50;;;18.70;96.20;;;19.20;61.68;95153.19;5036890;28;20464;-59
2023/09/01 01:06:14;;;;;;;6.20;2.70;;;18.70;96.30;;;19.22;62.68;95156.47;5037106;28;20941;-59
2023/09/01 01:08:50;;;;;;;3.83;2.93;;;18.70;96.10;;;19.22;62.03;95161.00;5036910;28;20487;-60
2023/09/01 01:11:22;;;;;;;6.83;2.90;;;18.70;96.00;;;19.22;61.68;95158.31;5032166;28;20775;-60
2023/09/01 01:13:52;;;;;;;4.60;3.00;;;18.70;96.00;;;19.22;61.97;95159.16;5039132;28;20479;-59
2023/09/01 01:16:20;;;;;;;4.40;2.87;;;18.70;96.00;;;19.24;62.10;95166.97;5036833;28;20447;-59
2023/09/01 01:18:49;;;;;;;6.73;3.23;;;18.70;96.00;;;19.19;61.89;95154.19;5038692;28;20536;-58
2023/09/01 01:21:22;;;;;;;6.80;3.13;;;18.70;95.90;;;19.19;61.67;95161.38;5035127;28;21071;-61
2023/09/01 01:23:52;;;;;;;2.90;2.33;;;18.70;96.00;;;19.15;62.21;95164.41;5033445;28;20480;-58
2023/09/01 01:26:19;;;;;;;5.67;2.80;;;18.70;96.00;;;19.14;62.17;95161.94;5036569;28;20498;-62
2023/09/01 01:28:46;;;;;;;6.80;2.77;;;18.70;96.00;;;19.11;61.65;95165.78;5033768;28;20951;-59
2023/09/01 01:31:13;;;;;;;4.43;2.87;;;18.60;95.90;;;19.09;61.99;95156.34;5037754;28;20956;-59
2023/09/01 01:33:47;;;;;;;7.73;4.00;;;18.60;95.90;;;19.07;62.03;95155.66;5036560;28;20988;-59
2023/09/01 01:36:19;;;;;;;6.13;2.83;;;18.60;96.00;;;19.03;62.28;95165.88;5033545;28;20533;-61
2023/09/01 01:38:51;;;;;;;8.90;3.17;;;18.60;96.50;;;18.98;62.47;95161.09;5024865;28;20507;-59
2023/09/01 01:41:21;;;;;;;6.67;2.93;;;18.50;96.20;;;18.93;62.74;95158.19;5033532;28;20443;-58
2023/09/01 01:43:50;;;;;;;6.10;2.70;;;18.50;96.50;;;18.89;61.96;95154.22;5037525;28;20840;-61
2023/09/01 01:46:17;;;;;;;5.43;3.20;;;18.50;96.40;;;18.87;62.18;95156.25;5036894;28;20453;-60
2023/09/01 01:48:44;;;;;;;3.60;3.30;;;18.40;96.50;;;18.86;62.36;95148.44;5036999;28;20563;-59
2023/09/01 01:51:12;;;;;;;5.60;3.20;;;18.40;96.60;;;18.84;62.80;95159.25;5032694;28;20575;-59
2023/09/01 01:53:39;;;;;;;5.07;2.80;;;18.40;96.70;;;18.81;63.12;95147.13;5036341;28;20481;-58
2023/09/01 01:56:08;;;;;;;10.80;3.00;;;18.40;96.90;;;18.78;62.51;95152.81;5035492;28;20472;-60
2023/09/01 01:58:35;;;;;;;6.33;2.90;;;18.30;96.70;;;18.75;62.92;95155.03;5031857;28;20507;-59
2023/09/01 02:01:06;;;;;;;7.83;2.67;;;18.30;96.70;;;18.73;62.87;95159.69;5031510;28;20460;-58
2023/09/01 02:03:34;;;;;;;5.10;3.00;;;18.30;97.00;;;18.71;63.21;95156.38;5035130;28;20502;-58
2023/09/01 02:06:01;;;;;;;8.93;3.80;;;18.30;97.00;;;18.70;62.97;95155.56;5040213;28;20459;-60
2023/09/01 02:08:28;;;;;;;3.93;3.00;;;18.20;96.80;;;18.70;63.36;95155.56;5035059;28;20541;-59
2023/09/01 02:10:56;;;;;;;3.10;2.90;;;18.20;97.00;;;18.69;63.38;95158.41;5034773;28;21042;-60
2023/09/01 02:13:24;;;;;;;7.27;3.53;;;18.20;97.20;;;18.66;63.14;95151.59;5036570;28;20468;-59
2023/09/01 02:15:52;;;;;;;3.00;2.70;;;18.20;97.20;;;18.64;63.46;95157.13;5033262;28;20452;-60
2023/09/01 02:18:20;;;;;;;11.87;3.60;;;18.20;97.10;;;18.63;63.32;95158.13;5036847;28;21043;-62
2023/09/01 02:20:47;;;;;;;6.03;4.07;;;18.20;97.30;;;18.63;63.19;95155.47;5035866;28;20972;-59
2023/09/01 02:23:16;;;;;;;9.10;2.83;;;18.20;97.30;;;18.64;63.04;95161.63;5032447;28;20559;-58
2023/09/01 02:25:43;;;;;;;5.07;3.13;;;18.20;97.30;;;18.64;63.46;95156.31;5032583;28;20458;-59
2023/09/01 02:28:11;;;;;;;7.10;2.63;;;18.20;97.30;;;18.63;63.51;95155.47;5033323;28;20508;-59
2023/09/01 02:30:39;;;;;;;4.43;3.47;;;18.20;97.40;;;18.63;63.08;95160.78;5037926;28;20452;-61
2023/09/01 02:33:07;;;;;;;3.70;3.40;;;18.20;97.40;;;18.61;63.31;95157.50;5033289;28;20547;-59
2023/09/01 02:35:34;;;;;;;7.80;3.50;;;18.20;97.50;;;18.59;63.36;95154.19;5035530;28;20533;-58
2023/09/01 02:38:01;;;;;;;6.13;3.40;;;18.10;97.50;;;18.58;63.17;95152.53;5037218;28;20516;-60
2023/09/01 02:40:28;;;;;;;4.20;3.30;;;18.10;97.40;;;18.57;63.43;95153.53;5038778;28;20973;-58
2023/09/01 02:42:55;;;;;;;15.37;3.17;;;18.10;97.40;;;18.54;63.71;95155.72;5037789;28;20439;-61
2023/09/01 02:45:24;;;;;;;4.53;3.43;;;18.10;97.50;;;18.51;63.74;95150.78;5041425;28;20464;-59
2023/09/01 02:47:52;;;;;;;9.13;3.70;;;18.10;97.90;;;18.46;63.72;95162.78;5043497;28;20451;-60
2023/09/01 02:50:20;;;;;;;7.10;3.30;;;18.00;97.50;;;18.42;63.38;95153.53;5039200;28;20453;-60
2023/09/01 02:52:47;;;;;;;6.60;2.93;;;18.00;97.70;;;18.41;63.82;95153.72;5035834;28;20507;-59
2023/09/01 02:55:17;;;;;;;6.90;3.80;;;18.00;97.80;;;18.38;64.18;95148.75;5039936;28;21055;-60
2023/09/01 02:57:44;;;;;;;5.27;3.67;;;17.90;97.80;;;18.34;63.98;95155.44;5038078;28;20487;-57
2023/09/01 03:00:18;;;;;;;7.07;3.30;;;17.90;97.70;;;18.26;63.70;95157.19;5041437;28;20479;-61
2023/09/01 03:02:45;;;;;;;6.93;2.80;;;17.90;97.90;;;18.23;64.30;95151.38;5040578;28;20518;-58
2023/09/01 03:05:14;;;;;;;10.60;3.80;;;17.80;97.90;;;18.18;63.95;95162.56;5035405;28;20479;-59
2023/09/01 03:07:41;;;;;;;3.27;2.97;;;17.80;98.20;;;18.15;64.87;95165.56;5035964;28;20509;-59
2023/09/01 03:10:09;;;;;;;4.30;3.37;;;17.80;98.30;;;18.12;64.57;95168.59;5039549;28;20477;-60
2023/09/01 03:12:38;;;;;;;5.80;3.37;;;17.70;98.20;;;18.12;64.68;95159.78;5038157;28;20463;-61
2023/09/01 03:15:07;;;;;;;5.93;4.50;;;17.70;98.20;;;18.10;64.72;95154.66;5038183;28;20470;-60
2023/09/01 03:17:34;;;;;;;6.23;3.40;;;17.70;98.20;;;18.13;64.58;95169.44;5035741;28;20972;-58
2023/09/01 03:20:02;;;;;;;7.23;4.00;;;17.70;98.50;;;18.13;64.69;95164.13;5037793;28;20640;-60
2023/09/01 03:22:32;;;;;;;12.43;4.37;;;17.70;98.50;;;18.13;64.41;95164.94;5041880;28;20560;-58
2023/09/01 03:24:59;;;;;;;4.73;3.00;;;17.70;98.40;;;18.10;64.57;95170.63;5037040;28;20476;-60
2023/09/01 03:27:27;;;;;;;9.17;4.07;;;17.70;98.50;;;18.10;64.58;95167.97;5037922;28;20449;-60
2023/09/01 03:29:57;;;;;;;13.97;4.23;;;17.70;98.40;;;18.08;64.43;95172.63;5037421;28;20475;-59
2023/09/01 03:32:24;;;;;;;4.80;3.67;;;17.70;98.50;;;18.05;64.74;95165.81;5040139;28;20573;-60
2023/09/01 03:34:52;;;;;;;11.50;3.43;;;17.70;98.30;;;18.03;65.18;95177.66;5035780;28;20478;-60
2023/09/01 03:37:19;;;;;;;7.13;3.93;;;17.60;98.60;;;18.02;64.53;95178.69;5038089;28;20549;-60
2023/09/01 03:39:48;;;;;;;7.20;4.03;;;17.60;98.70;;;18.02;64.41;95173.34;5037462;28;20873;-59
2023/09/01 03:42:15;;;;;;;12.47;4.07;;;17.60;98.50;;;18.00;64.67;95176.19;5037251;28;20526;-60
2023/09/01 03:44:42;;;;;;;10.73;3.77;;;17.60;98.50;;;17.99;65.09;95181.69;5039252;28;20476;-59
2023/09/01 03:47:10;;;;;;;13.57;3.90;;;17.60;98.80;;;17.99;65.41;95181.69;5042145;28;20517;-59
2023/09/01 03:49:37;;;;;;;5.97;3.40;;;17.60;98.90;;;18.00;65.41;95176.19;5040489;28;20480;-59
2023/09/01 03:52:04;;;;;;;6.47;3.83;;;17.60;98.90;;;18.02;65.34;95178.69;5031666;28;21051;-59
2023/09/01 03:54:32;;;;;;;9.43;4.33;;;17.60;99.00;;;18.04;65.19;95171.34;5039016;28;20486;-58
2023/09/01 03:57:01;;;;;;;6.27;3.63;;;17.60;98.90;;;18.05;65.19;95179.13;5040149;28;20471;-58
2023/09/01 03:59:28;;;;;;;7.27;4.43;;;17.60;98.80;;;18.07;64.96;95176.31;5042379;28;20500;-60
2023/09/01 04:01:55;;;;;;;6.30;4.50;;;17.70;99.00;;;18.09;64.68;95180.44;5040481;28;20460;-59
2023/09/01 04:04:22;;;;;;;12.13;4.40;;;17.70;99.00;;;18.10;64.88;95181.25;5039417;28;20476;-59
2023/09/01 04:06:50;;;;;;;7.53;3.97;;;17.70;98.90;;;18.10;64.54;95187.41;5037352;28;20456;-59
2023/09/01 04:09:17;;;;;;;10.60;4.80;;;17.70;98.90;;;18.11;64.78;95193.56;5033631;28;20567;-58
2023/09/01 04:11:44;;;;;;;7.17;3.43;;;17.70;98.80;;;18.12;65.06;95195.22;5036134;28;20468;-58
2023/09/01 04:14:13;;;;;;;8.13;4.10;;;17.70;98.80;;;18.13;64.77;95196.88;5029906;28;20478;-60
2023/09/01 04:16:40;;;;;;;11.63;4.20;;;17.70;98.80;;;18.16;64.91;95195.72;5042117;28;20479;-58
2023/09/01 04:19:07;;;;;;;10.43;3.43;;;17.70;98.80;;;18.16;65.07;95196.53;5038125;28;20504;-60
2023/09/01 04:21:35;;;;;;;15.30;5.00;;;17.70;98.80;;;18.17;64.13;95198.19;5038216;28;20448;-60
2023/09/01 04:24:02;;;;;;;14.43;4.33;;;17.70;98.40;;;18.14;64.52;95200.34;5039368;28;20476;-60
2023/09/01 04:26:29;;;;;;;9.70;4.70;;;17.70;98.50;;;18.08;64.55;95197.41;5035354;28;20465;-61
2023/09/01 04:28:56;;;;;;;6.40;4.17;;;17.70;98.20;;;18.03;64.39;95198.94;5038453;28;20483;-57
2023/09/01 04:31:28;;;;;;;4.30;3.73;;;17.70;98.60;;;18.03;64.79;95202.47;5033428;28;21031;-60
2023/09/01 04:33:56;;;;;;;6.43;3.87;;;17.70;98.90;;;18.09;65.29;95211.53;5037190;28;21015;-58
2023/09/01 04:36:23;;;;;;;16.13;4.80;;;17.70;99.00;;;18.17;64.86;95208.00;5039247;28;20465;-59
2023/09/01 04:38:50;;;;;;;7.07;4.30;;;17.70;99.10;;;18.26;64.87;95218.41;5037738;28;20491;-59
2023/09/01 04:41:18;;;;;;;8.13;3.90;;;17.80;99.00;;;18.34;64.89;95212.19;5041039;28;20463;-58
2023/09/01 04:43:45;;;;;;;5.30;4.00;;;17.90;99.10;;;18.42;64.71;95221.94;5033426;28;20531;-59
2023/09/01 04:46:12;;;;;;;7.17;4.30;;;18.00;99.30;;;18.54;64.21;95225.00;5035027;28;20460;-60
2023/09/01 04:48:42;;;;;;;6.20;4.53;;;18.10;98.80;;;18.69;64.46;95225.03;5034426;28;20479;-58
2023/09/01 04:51:09;;;;;;;11.97;4.63;;;18.20;98.50;;;18.77;63.93;95219.63;5035719;28;20552;-59
2023/09/01 04:53:36;;;;;;;13.63;6.40;;;18.30;98.50;;;18.85;63.57;95232.06;5037842;28;20486;-58
2023/09/01 04:56:04;;;;;;;32.07;11.30;;;18.40;98.50;;;18.92;64.19;95228.47;5037476;28;20872;-59
2023/09/01 04:58:31;;;;;;;30.30;8.00;;;18.50;98.60;;;19.04;63.72;95222.69;5032723;28;20475;-58
2023/09/01 05:00:58;;;;;;;8.07;5.97;;;18.50;98.60;;;19.12;63.14;95234.09;5003373;28;20484;-60
2023/09/01 05:03:26;;;;;;;34.37;11.27;;;18.60;98.10;;;19.21;63.19;95237.50;5038524;28;20992;-60
2023/09/01 05:05:56;;;;;;;14.40;5.60;;;18.70;98.00;;;19.28;62.52;95233.06;5036288;28;20917;-59
2023/09/01 05:08:24;;;;;;;28.50;7.07;;;18.80;97.80;;;19.38;62.11;95242.63;5037815;28;20562;-60
2023/09/01 05:10:52;;;;;;;8.20;4.80;;;18.90;97.50;;;19.43;62.22;95234.94;5035589;28;20839;-59
2023/09/01 05:13:19;;;;;;;10.77;5.20;;;18.90;97.30;;;19.50;62.07;95244.66;5043292;28;20483;-59
2023/09/01 05:15:49;;;;;;;13.70;7.20;;;19.00;97.20;;;19.57;61.76;95241.25;5036043;28;20455;-60
2023/09/01 05:18:16;;;;;;;20.70;4.67;;;19.10;97.20;;;19.66;61.63;95243.63;5038987;28;20930;-60
2023/09/01 05:20:47;;;;;;;11.73;5.10;;;19.20;97.10;;;19.75;61.29;95248.84;5037079;28;20517;-59
2023/09/01 05:23:16;;;;;;;7.40;3.80;;;19.20;97.00;;;19.82;60.91;95255.94;5035510;28;20487;-60
2023/09/01 05:25:43;;;;;;;8.47;4.00;;;19.30;96.80;;;19.85;61.03;95260.09;5030379;28;20984;-59
2023/09/01 05:28:10;;;;;;;7.43;3.77;;;19.30;96.50;;;19.91;60.79;95259.34;5039854;28;20976;-60
2023/09/01 05:30:38;;;;;;;18.10;4.57;;;19.40;96.30;;;19.96;60.53;95262.25;5036839;28;20468;-58
2023/09/01 05:33:05;;;;;;;6.67;3.70;;;19.40;96.30;;;19.98;60.00;95252.22;5036969;28;20909;-58
2023/09/01 05:35:33;;;;;;;11.33;4.40;;;19.50;96.00;;;20.03;60.38;95257.84;5039560;28;20971;-60
2023/09/01 05:38:00;;;;;;;4.97;3.37;;;19.50;95.90;;;20.13;59.92;95254.03;5038682;28;20543;-58
2023/09/01 05:40:28;;;;;;;10.27;4.67;;;19.60;95.80;;;20.28;59.59;95259.28;5039477;28;20617;-59
2023/09/01 05:42:56;;;;;;;11.63;5.33;;;19.70;95.80;;;20.48;59.76;95259.47;5036802;28;20513;-60
2023/09/01 05:45:23;;;;;;;8.87;5.67;;;19.90;95.90;;;20.71;59.27;95259.31;5035012;28;20452;-59
2023/09/01 05:47:50;;;;;;;6.03;4.00;;;20.10;95.60;;;20.94;58.94;95259.06;5033447;28;20563;-58
2023/09/01 05:50:19;;;;;;;7.93;4.00;;;20.30;95.30;;;21.20;58.33;95260.28;5035008;28;20497;-60
2023/09/01 05:52:46;;;;;;;7.43;3.40;;;20.50;94.90;;;21.41;57.88;95267.38;5033382;28;20452;-57
2023/09/01 05:55:13;;;;;;;6.83;3.50;;;20.80;94.40;;;21.62;57.25;95263.81;5039212;28;20829;-58
2023/09/01 05:57:42;;;;;;;12.00;4.37;;;21.00;94.20;;;21.81;56.91;95263.09;5034287;28;20547;-60
2023/09/01 06:00:10;;;;;;;10.60;4.47;;;21.10;93.70;;;22.01;56.60;95265.00;5037002;28;20554;-60
2023/09/01 06:02:38;;;;;;;13.87;4.90;;;21.40;93.40;;;22.24;56.17;95263.84;5043342;28;20678;-60
2023/09/01 06:05:06;;;;;;;12.73;4.37;;;21.60;93.10;;;22.48;55.85;95265.97;5038136;28;20480;-59
2023/09/01 06:07:34;;;;;;;12.03;5.07;;;21.80;92.70;;;22.71;55.73;95264.72;5033973;28;20519;-60
2023/09/01 06:10:01;;;;;;;18.80;5.30;;;22.00;92.20;;;22.94;54.80;95271.56;5036127;28;20476;-58
2023/09/01 06:12:28;;;;;;;9.00;3.30;;;22.20;92.00;;;23.13;54.17;95269.91;5039725;28;20465;-60
2023/09/01 06:14:57;;;;;;;7.93;4.00;;;22.40;91.50;;;23.34;54.18;95261.63;5044879;28;20494;-59
2023/09/01 06:17:24;;;;;;;6.83;4.20;;;22.70;91.10;;;23.51;53.64;95264.69;5041372;28;20451;-58
2023/09/01 06:19:52;;;;;;;6.70;4.53;;;22.80;90.60;;;23.66;53.17;95266.31;5040979;28;21029;-59
2023/09/01 06:22:20;;;;;;;10.17;3.80;;;23.00;90.00;;;23.68;53.57;95275.78;5035952;28;20456;-61
2023/09/01 06:24:47;;;;;;;5.33;3.63;;;23.00;89.30;;;23.72;53.53;95270.78;5036995;28;20475;-60
2023/09/01 06:27:14;;;;;;;7.90;3.20;;;23.10;89.40;;;23.80;52.66;95275.94;5040563;28;20456;-59
2023/09/01 06:29:42;;;;;;;14.13;4.70;;;23.10;89.40;;;23.95;53.07;95267.63;5036984;28;20468;-59
2023/09/01 06:32:11;;;;;;;6.10;4.37;;;23.30;88.90;;;24.14;52.49;95273.97;5042885;28;20923;-60
2023/09/01 06:34:39;;;;;;;7.60;4.47;;;23.40;88.50;;;24.37;52.14;95269.91;5036946;28;20478;-60
2023/09/01 06:37:06;;;;;;;6.43;3.87;;;23.60;88.10;;;24.61;51.73;95269.16;5040255;28;20458;-56
2023/09/01 06:39:33;;;;;;;9.03;5.10;;;23.80;87.50;;;24.86;52.07;95271.03;5036506;28;20504;-58
2023/09/01 06:42:01;;;;;;;4.93;3.30;;;24.10;86.80;;;25.12;51.03;95279.94;5037291;28;20478;-56
2023/09/01 06:44:29;;;;;;;5.47;3.40;;;24.30;85.70;;;25.31;51.11;95281.63;5039630;28;20475;-59
2023/09/01 06:46:57;;;;;;;7.40;3.83;;;24.50;84.60;;;25.40;50.55;95288.38;5042068;28;20455;-60
2023/09/01 06:49:25;;;;;;;6.83;4.40;;;24.70;83.20;;;25.53;50.41;95283.91;5042520;28;20474;-58
2023/09/01 06:51:53;;;;;;;6.40;4.20;;;24.80;82.70;;;25.72;49.84;95285.56;5037622;28;20461;-58
2023/09/01 06:54:20;;;;;;;6.03;4.40;;;24.90;81.90;;;25.94;49.68;95277.84;5039039;28;20482;-61
2023/09/01 06:56:47;;;;;;;11.63;3.80;;;25.20;81.50;;;26.07;49.18;95290.38;5042348;28;20463;-58
2023/09/01 06:59:14;;;;;;;9.13;4.30;;;25.40;80.20;;;26.18;49.14;95288.81;5038178;28;21142;-58
2023/09/01 07:01:42;;;;;;;6.43;4.27;;;25.50;79.60;;;26.34;48.91;95290.03;5036797;28;20475;-60
2023/09/01 07:04:09;;;;;;;5.90;4.10;;;25.60;79.10;;;26.56;48.91;95284.94;5040855;28;20479;-59
2023/09/01 07:06:37;;;;;;;6.87;3.47;;;25.80;79.20;;;26.83;47.68;95290.81;5037591;28;20857;-58
2023/09/01 07:09:05;;;;;;;6.23;4.60;;;26.00;77.60;;;27.11;47.13;95297.41;5041986;28;20508;-61
2023/09/01 07:11:32;;;;;;;9.90;4.43;;;26.30;76.20;;;27.38;47.23;95294.28;5044097;28;20471;-58
2023/09/01 07:13:59;;;;;;;5.30;3.87;;;26.60;75.40;;;27.65;47.32;95302.75;5044265;28;20987;-58
2023/09/01 07:16:26;;;;;;;7.57;4.20;;;26.90;75.10;;;27.93;46.62;95301.16;5037206;28;20448;-56
2023/09/01 07:18:54;;;;;;;14.33;4.80;;;27.10;74.30;;;28.24;46.09;95299.09;5043043;28;20554;-57
2023/09/01 07:21:21;;;;;;;7.77;4.50;;;27.40;74.50;;;28.55;45.77;95297.81;5041209;28;20494;-60
2023/09/01 07:23:50;;;;;;;8.40;4.00;;;27.70;72.00;;;28.74;44.86;95292.22;5038144;28;20548;-59
2023/09/01 07:26:17;;;;;;;12.00;4.50;;;28.00;71.50;;;29.01;45.31;95292.41;5036843;28;20465;-60
2023/09/01 07:28:44;;;;;;;7.13;3.40;;;28.20;70.50;;;29.31;44.15;95296.69;5039346;28;20844;-59
2023/09/01 07:31:12;;;;;;;13.13;3.80;;;28.40;69.60;;;29.61;43.73;95292.81;5037311;28;20814;-59
2023/09/01 07:33:41;;;;;;;10.90;4.50;;;28.80;68.30;;;29.92;43.59;95291.34;5035076;28;20475;-60
2023/09/01 07:36:10;;;;;;;6.73;3.30;;;29.10;67.10;;;30.21;42.60;95297.41;5045253;28;20459;-57
2023/09/01 07:38:37;;;;;;;6.70;3.50;;;29.40;66.20;;;30.48;42.68;95293.13;5039208;28;20472;-60
2023/09/01 07:41:07;;;;;;;5.10;3.10;;;29.70;65.40;;;30.71;40.88;95290.09;5041546;28;20225;-59
2023/09/01 07:43:35;;;;;;;4.57;4.17;;;29.90;63.50;;;30.82;41.21;95291.03;5035704;28;20221;-61
2023/09/01 07:46:02;;;;;;;6.50;3.80;;;30.00;63.20;;;31.04;40.75;95293.69;5038755;28;20209;-59
2023/09/01 07:48:30;;;;;;;3.60;3.10;;;30.20;62.50;;;31.36;40.99;95297.47;5036337;28;20218;-60
2023/09/01 07:50:57;;;;;;;8.13;3.20;;;30.50;62.50;;;31.75;39.88;95294.50;5038458;28;20336;-58
2023/09/01 07:53:24;;;;;;;7.37;3.77;;;30.90;61.50;;;32.16;39.53;95301.00;5038408;28;20275;-58
2023/09/01 07:55:51;;;;;;;6.67;3.30;;;31.30;60.50;;;32.53;39.21;95302.75;5034563;28;20205;-61
2023/09/01 07:58:20;;;;;;;5.17;3.30;;;31.70;59.60;;;32.88;38.41;95295.75;5038264;28;20235;-57
2023/09/01 08:00:47;;;;;;;8.60;3.20;;;32.10;58.90;;;33.28;38.01;95298.81;5034628;28;20268;-57
2023/09/01 08:03:15;;;;;;;7.72;3.55;;;32.60;58.00;;;33.53;36.86;95295.22;5039063;28;20221;-58
2023/09/01 08:05:42;;;;;;;18.50;3.40;;;33.00;56.60;;;33.65;37.09;95299.56;5033721;28;20213;-59
2023/09/01 08:08:12;;;;;;;3.90;3.28;;;33.10;56.00;;;33.84;36.80;95303.38;5033356;28;20270;-56
2023/09/01 08:10:39;;;;;;;7.97;4.07;;;33.40;55.70;;;34.15;35.61;95299.75;5052238;28;20201;-58
2023/09/01 08:13:06;;;;;;;4.93;3.53;;;33.60;54.90;;;34.47;34.24;95291.97;5047687;28;20216;-78
2023/09/01 08:15:35;;;;;;;6.45;4.03;;;33.90;52.20;;;34.61;35.55;95294.91;5037574;28;20223;-58
2023/09/01 08:18:03;;;;;;;5.75;3.75;;;34.20;53.40;;;34.78;34.62;95294.56;5038954;28;20206;-58
2023/09/01 08:20:30;;;;;;;7.80;3.45;;;34.40;53.10;;;34.93;35.16;95295.56;5038273;28;20332;-57
2023/09/01 08:22:57;;;;;;;6.50;4.03;;;34.60;52.50;;;35.16;34.40;95285.81;5042243;28;20201;-77
2023/09/01 08:25:25;;;;;;;4.03;3.45;;;34.90;52.00;;;35.47;34.54;95291.84;5040928;28;20248;-60
2023/09/01 08:27:52;;;;;;;5.65;3.72;;;35.20;51.60;;;35.59;32.86;95287.91;5039139;28;20625;-58
2023/09/01 08:30:19;;;;;;;5.85;3.75;;;35.50;49.40;;;35.42;32.75;95291.09;5036755;28;20208;-79
2023/09/01 08:32:48;;;;;;;8.93;4.03;;;35.50;49.40;;;35.19;32.62;95285.22;5037020;28;20630;-79
2023/09/01 08:35:15;;;;;;;7.22;3.80;;;35.40;49.10;;;35.04;33.87;95277.16;5035282;28;20231;-57
2023/09/01 08:37:43;;;;;;;3.47;3.28;;;35.20;49.40;;;34.93;33.47;95279.94;5036680;28;20696;-58
2023/09/01 08:40:11;;;;;;;6.93;4.15;;;35.00;49.60;;;34.95;33.75;95285.97;5035436;28;20235;-80
2023/09/01 08:42:43;;;;;;;6.35;3.88;;;34.90;49.70;;;34.94;33.42;95273.41;5035793;28;20206;-78
2023/09/01 08:45:11;;;;;;;9.25;4.68;;;34.80;49.10;;;34.88;32.73;95273.72;5036892;28;20221;-78
2023/09/01 08:47:44;;;;;;;6.25;3.22;;;34.60;49.40;;;34.95;32.55;95264.09;5040496;28;20574;-78
2023/09/01 08:50:13;;;;;;;4.07;3.67;;;34.50;49.40;;;35.08;32.86;95267.28;5041479;28;20294;-78
2023/09/01 08:52:41;;;;;;;6.38;3.53;;;34.60;49.40;;;35.15;32.76;95275.97;5037980;28;20209;-78
2023/09/01 08:55:10;;;;;;;6.78;3.85;;;34.60;49.10;;;35.27;32.80;95276.44;5054613;28;20263;-77
2023/09/01 08:57:38;;;;;;;7.40;4.28;;;34.70;49.00;;;35.45;31.76;95279.59;5053586;28;20291;-79
2023/09/01 09:00:08;;;;;;;6.78;3.85;;;34.80;48.60;;;35.55;32.42;95274.00;5051889;28;20248;-58
2023/09/01 09:02:35;;;;;;;8.73;3.95;;;34.90;48.20;;;35.62;31.23;95259.97;5038043;28;20280;-57
2023/09/01 09:05:03;;;;;;;5.13;4.10;;;35.00;48.20;;;35.62;31.55;95273.63;5037153;28;20221;-58
2023/09/01 09:07:32;;;;;;;8.68;4.95;;;35.00;48.20;;;35.74;31.74;95274.06;5040002;28;20213;-80
2023/09/01 09:10:00;;;;;;;8.65;3.70;;;35.00;48.20;;;35.84;31.16;95271.25;5042853;28;20228;-80
2023/09/01 09:12:36;;;;;;;7.78;4.72;;;35.10;47.40;;;35.83;30.54;95260.59;5045921;28;20583;-58
2023/09/01 09:15:04;;;;;;;5.50;4.05;;;35.10;47.80;;;35.94;31.13;95266.78;5036686;28;20255;-59
2023/09/01 09:17:44;;;;;;;10.75;4.15;;;35.20;47.30;;;36.04;30.44;95262.00;5039985;28;20208;-78
2023/09/01 09:20:12;;;;;;;8.55;4.20;;;35.30;46.50;;;36.12;30.96;95265.19;5037845;28;20399;-79
2023/09/01 09:22:54;;;;;;;5.20;3.47;;;35.30;46.70;;;36.22;29.53;95256.84;5038624;28;20645;-57
2023/09/01 09:25:28;;;;;;;3.40;3.20;;;35.40;45.80;;;36.32;30.14;95261.41;5036266;28;20204;-62
2023/09/01 09:27:56;;;;;;;5.75;3.60;;;35.50;45.90;;;36.39;29.73;95261.84;5035625;28;20209;-60
2023/09/01 09:30:26;;;;;;;4.80;4.35;;;35.60;45.90;;;36.46;28.89;95250.53;5032624;28;20255;-62
2023/09/01 09:33:03;;;;;;;5.50;4.43;;;35.70;44.90;;;36.45;29.33;95255.19;5029650;28;20548;-74
2023/09/01 09:35:31;;;;;;;5.50;4.50;;;35.70;44.90;;;36.45;29.49;95243.44;5033392;28;20856;-60
2023/09/01 09:38:00;;;;;;;10.00;4.63;;;35.70;44.60;;;36.50;29.19;95243.34;5032185;28;20224;-75
2023/09/01 09:40:27;;;;;;;6.50;3.53;;;35.70;44.90;;;36.58;29.26;95246.25;5031202;28;20232;-72
2023/09/01 09:42:57;;;;;;;11.20;5.25;;;35.80;44.90;;;36.72;29.19;95238.09;5034014;28;20205;-73
2023/09/01 09:45:28;;;;;;;4.22;3.83;;;35.90;44.60;;;36.82;28.80;95236.34;5034083;28;20684;-73
2023/09/01 09:47:56;;;;;;;7.40;3.78;;;36.00;44.30;;;36.57;29.10;95238.31;5034302;28;20706;-61
2023/09/01 09:50:25;;;;;;;6.15;3.70;;;35.90;43.80;;;36.42;29.39;95233.84;5034138;28;20197;-72
2023/09/01 09:53:00;;;;;;;3.67;3.38;;;35.70;44.10;;;36.44;29.17;95242.63;5035560;28;20304;-71
2023/09/01 09:55:28;;;;;;;5.25;4.15;;;35.60;44.30;;;36.52;29.19;95235.66;5034177;28;20605;-72
2023/09/01 09:58:08;;;;;;;7.78;4.15;;;35.70;44.10;;;36.60;28.93;95240.47;5039749;28;20624;-73
2023/09/01 10:00:40;;;;;;;3.97;3.55;;;35.80;44.20;;;36.68;28.94;95231.56;5033850;28;20290;-72
2023/09/01 10:03:08;;;;;;;5.45;3.65;;;35.90;44.10;;;36.78;28.68;95227.91;5035909;28;20285;-60
2023/09/01 10:05:35;;;;;;;10.73;3.58;;;35.90;43.90;;;36.85;28.43;95227.50;5032856;28;20209;-73
2023/09/01 10:08:05;;;;;;;4.03;3.70;;;36.00;43.80;;;36.85;28.56;95222.84;5036531;28;20278;-73
2023/09/01 10:10:34;;;;;;;4.20;3.80;;;36.00;43.70;;;36.81;28.33;95226.47;5037431;28;20287;-75
2023/09/01 10:13:04;;;;;;;4.22;3.33;;;36.00;43.10;;;36.77;28.68;95223.53;5033620;28;20201;-74
2023/09/01 10:15:32;;;;;;;10.80;3.28;;;36.00;43.40;;;36.75;28.81;95226.56;5034620;28;20199;-75
2023/09/01 10:18:01;;;;;;;4.32;3.35;;;35.90;43.20;;;36.74;28.21;95219.44;5032800;28;20288;-73
2023/09/01 10:20:30;;;;;;;3.50;3.20;;;35.90;43.10;;;36.76;28.21;95222.72;5035176;28;20323;-59
2023/09/01 10:22:57;;;;;;;4.25;3.70;;;35.90;43.00;;;36.76;28.20;95219.97;5032857;28;20197;-73